Aérodrome :
LOGIN :

S'inscrire | Disclaimer

   EN    FR    IT 

 










Légende :    VFR   VFR Marginal   IFR   IFR Intensif   IFR Très Intensif
Visi : 
Plafond : 
>= 8 km
>= 3000ft
5 à 8 km
1000 à 3000 ft
1500m à 5 km
500 à 1000 ft
800 à 1500m
200 à 500 ft
< 800m
< 200 ft
Symboles :   Orages  Brouillard  Fortes neiges  Fortes précipitations  Vent > 20 kt
SIGMETs :   Divers  Orages  Givrage  Turbulence  Onde Orograph.  Cendres Volcan.







- Altitude de l'aérodrome : 79 ft
- Code IATA : NSY


LICZ - Sigonella (Mil) Catania

DERNIER METAR :
  • 200855Z 08009KT 9999 FEW030 28/19 Q1019 RMK FEW VIS MIN 9999 WIND THR28 08008KT WIND THR10 08008KT A3009 BLU

METARs EXPIRÉS :
  • 200755Z 10004KT CAVOK 27/17 Q1018 RMK SKC VIS MIN 9999 WIND THR28 05005KT WIND THR10 05004KT A3009 BLU
  • 200655Z 31003KT CAVOK 24/18 Q1018 RMK SKC VIS MIN 9999 WIND THR28 31002KT WIND THR10 32002KT A3009 BLU
  • 200555Z 31005KT CAVOK 23/18 Q1018 RMK SKC VIS MIN 9999 WIND THR28 30004KT WIND THR10 29005KT 3008 BLU

TAF TAF LICZ
Valide du 20 à 09h jusqu'au 20 à 18h UTC


200800Z 2009/2018 08013KT 9999 FEW020
Pas de NOTAMs connus pour ce terrain.



MET'MAP, la Météo Aéronautique d'un coup d'oeil ! - Copyright ORBIFLY Décembre 2007 - Disclaimer

ORBIFLY MET'MAP TEAM :

Programmation & Développement : Alexandra Zaïnal
Conception & Développement : Baudouin d'Aumeries
Co-Programmation & Développement : Marc-Olivier Méhu
Soutien technique & logistique : Manuel Goepfert

Contact : metmap@orbifly.com




SOURCES & CREDITS :

   NOAA